Map

Track Data

SID SEASON NUMBER BASIN SUBBASIN NAME ISO_TIME NATURE LAT LON WMO_WIND WMO_PRES WMO_AGENCY TRACK_TYPE DIST2LAND LANDFALL IFLAG USA_AGENCY USA_ATCF_ID USA_LAT USA_LON USA_RECORD USA_STATUS USA_WIND USA_PRES USA_SSHS USA_R34_NE USA_R34_SE USA_R34_SW USA_R34_NW USA_R50_NE USA_R50_SE USA_R50_SW USA_R50_NW USA_R64_NE USA_R64_SE USA_R64_SW USA_R64_NW USA_POCI USA_ROCI USA_RMW USA_EYE TOKYO_LAT TOKYO_LON TOKYO_GRADE TOKYO_WIND TOKYO_PRES TOKYO_R50_DIR TOKYO_R50_LONG TOKYO_R50_SHORT TOKYO_R30_DIR TOKYO_R30_LONG TOKYO_R30_SHORT TOKYO_LAND CMA_LAT CMA_LON CMA_CAT CMA_WIND CMA_PRES HKO_LAT HKO_LON HKO_CAT HKO_WIND HKO_PRES NEWDELHI_LAT NEWDELHI_LON NEWDELHI_GRADE NEWDELHI_WIND NEWDELHI_PRES NEWDELHI_CI NEWDELHI_DP NEWDELHI_POCI REUNION_LAT REUNION_LON REUNION_TYPE REUNION_WIND REUNION_PRES REUNION_TNUM REUNION_CI REUNION_RMW REUNION_R34_NE REUNION_R34_SE REUNION_R34_SW REUNION_R34_NW REUNION_R50_NE REUNION_R50_SE REUNION_R50_SW REUNION_R50_NW REUNION_R64_NE REUNION_R64_SE REUNION_R64_SW REUNION_R64_NW BOM_LAT BOM_LON BOM_TYPE BOM_WIND BOM_PRES BOM_TNUM BOM_CI BOM_RMW BOM_R34_NE BOM_R34_SE BOM_R34_SW BOM_R34_NW BOM_R50_NE BOM_R50_SE BOM_R50_SW BOM_R50_NW BOM_R64_NE BOM_R64_SE BOM_R64_SW BOM_R64_NW BOM_ROCI BOM_POCI BOM_EYE BOM_POS_METHOD BOM_PRES_METHOD NADI_LAT NADI_LON NADI_CAT NADI_WIND NADI_PRES WELLINGTON_LAT WELLINGTON_LON WELLINGTON_WIND WELLINGTON_PRES DS824_LAT DS824_LON DS824_STAGE DS824_WIND DS824_PRES TD9636_LAT TD9636_LON TD9636_STAGE TD9636_WIND TD9636_PRES TD9635_LAT TD9635_LON TD9635_WIND TD9635_PRES TD9635_ROCI NEUMANN_LAT NEUMANN_LON NEUMANN_CLASS NEUMANN_WIND NEUMANN_PRES MLC_LAT MLC_LON MLC_CLASS MLC_WIND MLC_PRES USA_GUST BOM_GUST BOM_GUST_PER REUNION_GUST REUNION_GUST_PER USA_SEAHGT USA_SEARAD_NE USA_SEARAD_SE USA_SEARAD_SW USA_SEARAD_NW STORM_SPEED STORM_DIR
1952344N06110 1952 99 WP MM NOT_NAMED 1952-12-08 12:00:00 NR 6.00000 109.700 main 263 263 __________O___ -1 6.00000 109.700 2 8 335
1952344N06110 1952 99 WP MM NOT_NAMED 1952-12-08 15:00:00 NR 6.37503 109.524 main 290 290 __________P___ -1 6.37503 109.524 2 8 336
1952344N06110 1952 99 WP MM NOT_NAMED 1952-12-08 18:00:00 NR 6.73003 109.378 main 315 315 __________P___ -1 6.73003 109.378 2 7 341
1952344N06110 1952 99 WP MM NOT_NAMED 1952-12-08 21:00:00 NR 7.04500 109.293 main 343 343 __________P___ -1 7.04500 109.293 2 6 352
1952344N06110 1952 99 WP MM NOT_NAMED 1952-12-09 00:00:00 NR 7.30000 109.300 main 375 375 __________O___ -1 7.30000 109.300 2 5 16
1952344N06110 1952 99 WP MM NOT_NAMED 1952-12-09 03:00:00 NR 7.48254 109.418 main 390 384 __________P___ -1 7.48254 109.418 2 4 45
1952344N06110 1952 99 WP MM NOT_NAMED 1952-12-09 06:00:00 NR 7.61008 109.617 main 389 384 __________P___ -1 7.61008 109.617 2 5 63
1952344N06110 1952 99 WP MM NOT_NAMED 1952-12-09 09:00:00 NR 7.70757 109.858 main 395 392 __________P___ -1 7.70757 109.858 2 5 68
1952344N06110 1952 99 WP MM NOT_NAMED 1952-12-09 12:00:00 NR 7.80000 110.100 main 398 395 __________O___ -1 7.80000 110.100 2 5 62
1952344N06110 1952 99 WP MM NOT_NAMED 1952-12-09 15:00:00 NR 7.92081 110.258 main 401 392 __________P___ -1 7.92081 110.258 2 4 52
1952344N06110 1952 99 WP MM NOT_NAMED 1952-12-09 18:00:00 NR 8.04230 110.413 main 398 389 __________P___ -1 8.04230 110.413 2 4 53
1952344N06110 1952 99 WP MM NOT_NAMED 1952-12-09 21:00:00 NR 8.16765 110.586 main 393 391 __________P___ -1 8.16765 110.586 2 5 56
1952344N06110 1952 99 WP MM NOT_NAMED 1952-12-10 00:00:00 NR 8.30000 110.800 main 398 395 __________O___ -1 8.30000 110.800 2 6 65
1952344N06110 1952 99 WP MM NOT_NAMED 1952-12-10 03:00:00 NR 8.41464 111.127 main 407 404 __________P___ -1 8.41464 111.127 2 7 71
1952344N06110 1952 99 WP MM NOT_NAMED 1952-12-10 06:00:00 NR 8.54039 111.487 main 424 416 __________P___ -1 8.54039 111.487 2 8 68
1952344N06110 1952 99 WP MM NOT_NAMED 1952-12-10 09:00:00 NR 8.69589 111.830 main 430 430 __________P___ -1 8.69589 111.830 2 7 59
1952344N06110 1952 99 WP MM NOT_NAMED 1952-12-10 12:00:00 NR 8.90000 112.100 main 440 433 __________O___ -1 8.90000 112.100 2 6 42
1952344N06110 1952 99 WP MM NOT_NAMED 1952-12-10 15:00:00 NR 9.16572 112.260 main 437 419 __________P___ -1 9.16572 112.260 2 6 21
1952344N06110 1952 99 WP MM NOT_NAMED 1952-12-10 18:00:00 NR 9.48223 112.325 main 419 400 __________P___ -1 9.48223 112.325 2 7 6
1952344N06110 1952 99 WP MM NOT_NAMED 1952-12-10 21:00:00 NR 9.83264 112.328 main 400 378 __________P___ -1 9.83264 112.328 2 7 0
1952344N06110 1952 99 WP MM NOT_NAMED 1952-12-11 00:00:00 NR 10.2000 112.300 main 378 __________O___ -1 10.2000 112.300 2 7 0

Digital Typhoon Data and Search

About IBTrACS Database

This database is a web-friendly format of International Best Track Archive for Climate Stewardship (IBTrACS), a global best track data archive curated by NOAA dating back to 1842.

Updated: 2021-12-06